createdAt,value
2022-09-23T00:01:13.562Z,101592.31
2022-09-23T00:03:42.737Z,101587.84
2022-09-23T00:06:12.405Z,101582.44
2022-09-23T00:08:40.365Z,101581.59
2022-09-23T00:11:15.887Z,101592.09
2022-09-23T00:13:48.932Z,101589.41
2022-09-23T00:16:28.471Z,101582.34
2022-09-23T00:18:55.334Z,101587.66
2022-09-23T00:21:25.314Z,101592.06
2022-09-23T00:23:52.021Z,101585.78
2022-09-23T00:26:21.619Z,101577.78
2022-09-23T00:28:51.805Z,101581.25
2022-09-23T00:31:24.268Z,101575.94
2022-09-23T00:33:58.826Z,101575.13
2022-09-23T00:36:26.519Z,101575.13
2022-09-23T00:38:56.570Z,101576.00
2022-09-23T00:41:23.713Z,101575.13
2022-09-23T00:43:55.733Z,101574.22
2022-09-23T00:46:38.041Z,101567.19
2022-09-23T00:49:37.619Z,101559.28
2022-09-23T00:52:13.096Z,101572.47
2022-09-23T00:54:43.569Z,101566.31
2022-09-23T00:57:13.286Z,101565.44
2022-09-23T00:59:40.409Z,101571.72
2022-09-23T01:02:07.570Z,101566.41
2022-09-23T01:04:34.838Z,101562.94
2022-09-23T01:07:01.444Z,101555.84
2022-09-23T01:09:28.501Z,101556.78
2022-09-23T01:12:12.909Z,101563.03
2022-09-23T01:15:09.860Z,101554.22
2022-09-23T01:18:11.394Z,101553.38
2022-09-23T01:21:06.323Z,101552.66
2022-09-23T01:23:54.594Z,101551.84
2022-09-23T01:26:53.465Z,101553.72
2022-09-23T01:29:47.313Z,101544.94
2022-09-23T01:32:40.986Z,101544.06
2022-09-23T01:35:26.315Z,101545.03
2022-09-23T01:38:31.927Z,101552.13
2022-09-23T01:41:14.200Z,101551.28
2022-09-23T01:43:49.937Z,101547.78
2022-09-23T01:46:31.430Z,101546.94
2022-09-23T01:49:15.723Z,101546.94
2022-09-23T01:51:48.914Z,101545.19
2022-09-23T01:54:22.970Z,101543.38
2022-09-23T01:57:01.392Z,101541.59
2022-09-23T01:59:27.935Z,101543.31
2022-09-23T02:02:01.836Z,101542.38
2022-09-23T02:04:39.609Z,101535.31
2022-09-23T02:07:29.475Z,101540.56
2022-09-23T02:10:25.762Z,101544.16
2022-09-23T02:12:58.052Z,101536.28
2022-09-23T02:15:41.938Z,101535.44
2022-09-23T02:18:16.846Z,101544.34
2022-09-23T02:20:43.995Z,101537.28
2022-09-23T02:23:21.013Z,101533.78
2022-09-23T02:26:12.005Z,101527.69
2022-09-23T02:29:16.869Z,101534.84
2022-09-23T02:31:49.502Z,101533.97
2022-09-23T02:34:33.984Z,101525.19
2022-09-23T02:37:29.592Z,101521.59
2022-09-23T02:40:00.245Z,101527.88
2022-09-23T02:42:52.838Z,101526.13
2022-09-23T02:45:19.767Z,101524.47
2022-09-23T02:47:49.911Z,101518.25
2022-09-23T02:50:19.177Z,101524.47
2022-09-23T02:52:46.951Z,101514.81
2022-09-23T02:55:17.258Z,101517.47
2022-09-23T02:57:44.653Z,101526.38
2022-09-23T03:00:12.453Z,101508.78
2022-09-23T03:02:58.913Z,101515.81
2022-09-23T03:05:32.169Z,101507.81
2022-09-23T03:08:42.354Z,101499.84
2022-09-23T03:11:13.079Z,101506.97
2022-09-23T03:14:17.864Z,101500.75
2022-09-23T03:17:06.984Z,101502.53
2022-09-23T03:19:50.762Z,101497.28
2022-09-23T03:22:35.604Z,101491.13
2022-09-23T03:25:16.051Z,101493.78
2022-09-23T03:27:44.141Z,101492.97
2022-09-23T03:30:11.634Z,101488.56
2022-09-23T03:32:39.499Z,101492.13
2022-09-23T03:35:06.747Z,101490.41
2022-09-23T03:37:54.070Z,101486.91
2022-09-23T03:40:35.793Z,101484.22
2022-09-23T03:43:04.532Z,101484.16
2022-09-23T03:45:33.594Z,101481.56
2022-09-23T03:48:00.733Z,101478.13
2022-09-23T03:50:28.005Z,101483.47
2022-09-23T03:52:54.659Z,101476.53
2022-09-23T03:55:21.461Z,101476.59
2022-09-23T03:57:48.755Z,101474.88
2022-09-23T04:00:16.079Z,101478.41
2022-09-23T04:02:43.056Z,101470.44
2022-09-23T04:05:11.592Z,101467.84
2022-09-23T04:07:38.579Z,101473.25
2022-09-23T04:10:06.349Z,101462.69
2022-09-23T04:12:33.013Z,101464.44
2022-09-23T04:15:00.160Z,101467.16
2022-09-23T04:17:26.830Z,101465.38
2022-09-23T04:19:53.501Z,101453.00
2022-09-23T04:22:20.145Z,101462.72
2022-09-23T04:24:47.011Z,101458.31
2022-09-23T04:27:13.658Z,101453.88
2022-09-23T04:29:40.279Z,101458.31
2022-09-23T04:32:06.862Z,101457.41
2022-09-23T04:34:33.537Z,101456.59
2022-09-23T04:37:00.142Z,101468.09
2022-09-23T04:39:26.883Z,101471.69
2022-09-23T04:41:53.487Z,101469.06
2022-09-23T04:44:21.322Z,101475.38
2022-09-23T04:46:48.395Z,101475.47
2022-09-23T04:49:16.465Z,101474.59
2022-09-23T04:51:43.760Z,101472.94
2022-09-23T04:54:12.239Z,101474.69
2022-09-23T04:56:39.911Z,101472.03
2022-09-23T04:59:07.586Z,101470.22
2022-09-23T05:01:36.359Z,101467.50
2022-09-23T05:04:06.856Z,101472.72
2022-09-23T05:06:35.004Z,101474.50
2022-09-23T05:09:02.842Z,101470.94
2022-09-23T05:11:31.384Z,101471.78
2022-09-23T05:13:58.590Z,101474.38
2022-09-23T05:16:26.220Z,101474.28
2022-09-23T05:18:53.329Z,101476.00
2022-09-23T05:21:22.791Z,101472.41
2022-09-23T05:23:54.237Z,101481.31
2022-09-23T05:26:25.834Z,101481.22
2022-09-23T05:28:54.020Z,101482.06
2022-09-23T05:31:26.399Z,101478.47
2022-09-23T05:33:57.466Z,101481.97
2022-09-23T05:36:26.250Z,101479.19
2022-09-23T05:38:52.985Z,101476.47
2022-09-23T05:41:23.247Z,101471.88
2022-09-23T05:43:51.838Z,101481.50
2022-09-23T05:46:30.028Z,101481.41
2022-09-23T05:49:01.771Z,101487.50
2022-09-23T05:51:31.162Z,101488.28
2022-09-23T05:53:58.997Z,101494.44
2022-09-23T05:56:27.902Z,101490.78
2022-09-23T05:58:57.200Z,101485.44
2022-09-23T06:01:27.709Z,101486.25
2022-09-23T06:03:56.322Z,101485.25
2022-09-23T06:06:31.886Z,101486.00
2022-09-23T06:08:59.547Z,101486.78
2022-09-23T06:11:26.891Z,101491.16
2022-09-23T06:14:05.885Z,101486.59
2022-09-23T06:16:37.919Z,101483.00
2022-09-23T06:19:07.461Z,101484.66
2022-09-23T06:21:36.115Z,101487.28
2022-09-23T06:24:03.338Z,101481.97
2022-09-23T06:26:33.646Z,101477.34
2022-09-23T06:29:08.784Z,101486.09
2022-09-23T06:31:35.927Z,101487.88
2022-09-23T06:34:11.564Z,101485.25
2022-09-23T06:36:44.356Z,101484.34
2022-09-23T06:39:12.956Z,101486.06
2022-09-23T06:41:39.850Z,101493.97
2022-09-23T06:44:06.597Z,101493.03
2022-09-23T06:46:33.583Z,101488.53
2022-09-23T06:49:02.126Z,101493.78
2022-09-23T06:51:28.712Z,101495.41
2022-09-23T06:53:57.627Z,101493.53
2022-09-23T06:56:24.770Z,101487.25
2022-09-23T06:58:55.805Z,101483.56
2022-09-23T07:01:23.304Z,101486.09
2022-09-23T07:03:52.830Z,101494.88
2022-09-23T07:06:19.994Z,101489.47
2022-09-23T07:08:51.352Z,101492.03
2022-09-23T07:11:22.414Z,101485.84
2022-09-23T07:13:49.188Z,101494.69
2022-09-23T07:16:18.816Z,101494.59
2022-09-23T07:18:45.817Z,101494.50
2022-09-23T07:21:24.159Z,101493.53
2022-09-23T07:23:51.904Z,101492.53
2022-09-23T07:26:22.932Z,101494.28
2022-09-23T07:28:54.698Z,101489.75
2022-09-23T07:31:33.452Z,101493.34
2022-09-23T07:34:06.594Z,101489.75
2022-09-23T07:36:33.308Z,101483.47
2022-09-23T07:39:03.842Z,101491.41
2022-09-23T07:41:32.230Z,101482.50
2022-09-23T07:44:00.750Z,101479.75
2022-09-23T07:46:33.086Z,101484.03
2022-09-23T07:48:59.871Z,101484.78
2022-09-23T07:51:35.526Z,101487.34
2022-09-23T07:54:05.419Z,101486.31
2022-09-23T07:56:32.091Z,101483.56
2022-09-23T07:59:05.810Z,101497.63
2022-09-23T08:01:44.709Z,101493.09
2022-09-23T08:04:17.978Z,101485.91
2022-09-23T08:06:51.360Z,101483.16
2022-09-23T08:09:20.034Z,101481.25
2022-09-23T08:11:46.928Z,101487.34
2022-09-23T08:14:15.485Z,101485.34
2022-09-23T08:16:42.563Z,101489.72
2022-09-23T08:19:09.538Z,101484.28
2022-09-23T08:21:37.651Z,101486.84
2022-09-23T08:24:04.348Z,101488.50
2022-09-23T08:26:32.637Z,101484.75
2022-09-23T08:28:59.240Z,101482.78
2022-09-23T08:31:26.066Z,101475.53
2022-09-23T08:33:57.753Z,101475.38
2022-09-23T08:36:25.448Z,101474.31
2022-09-23T08:38:52.602Z,101475.06
2022-09-23T08:41:47.757Z,101472.22
2022-09-23T08:44:23.067Z,101473.03
2022-09-23T08:47:04.938Z,101468.47
2022-09-23T08:49:38.742Z,101464.81
2022-09-23T08:52:29.536Z,101462.94
2022-09-23T08:54:56.451Z,101461.91
2022-09-23T08:57:32.707Z,101459.94
2022-09-23T09:00:01.825Z,101454.41
2022-09-23T09:02:29.680Z,101463.16
2022-09-23T09:05:03.579Z,101461.19
2022-09-23T09:07:37.445Z,101464.53
2022-09-23T09:10:19.444Z,101465.22
2022-09-23T09:12:49.886Z,101461.50
2022-09-23T09:15:27.583Z,101455.97
2022-09-23T09:18:04.429Z,101463.81
2022-09-23T09:20:57.188Z,101469.88
2022-09-23T09:23:49.106Z,101455.47
2022-09-23T09:26:36.001Z,101459.69
2022-09-23T09:29:34.414Z,101462.16
2022-09-23T09:32:25.570Z,101454.13
2022-09-23T09:35:05.326Z,101449.63
2022-09-23T09:37:40.467Z,101453.97
2022-09-23T09:40:12.250Z,101456.50
2022-09-23T09:42:50.315Z,101448.31
2022-09-23T09:45:28.385Z,101455.28
2022-09-23T09:48:01.816Z,101455.09
2022-09-23T09:51:18.836Z,101451.34
2022-09-23T09:53:45.469Z,101463.59
2022-09-23T09:56:16.486Z,101459.06
2022-09-23T09:58:56.818Z,101449.03
2022-09-23T10:01:27.443Z,101446.16
2022-09-23T10:03:59.141Z,101444.16
2022-09-23T10:06:29.060Z,101447.47
2022-09-23T10:09:01.922Z,101445.50
2022-09-23T10:11:32.574Z,101446.22
2022-09-23T10:14:11.202Z,101438.94
2022-09-23T10:16:38.086Z,101438.81
2022-09-23T10:19:13.963Z,101432.38
2022-09-23T10:21:42.911Z,101427.84
2022-09-23T10:24:22.711Z,101433.06
2022-09-23T10:26:58.134Z,101425.69
2022-09-23T10:29:53.315Z,101422.72
2022-09-23T10:32:27.764Z,101415.31
2022-09-23T10:34:57.623Z,101417.75
2022-09-23T10:37:32.884Z,101412.13
2022-09-23T10:40:19.557Z,101407.59
2022-09-23T10:43:45.810Z,101401.00
2022-09-23T10:46:39.817Z,101400.56
2022-09-23T10:49:27.708Z,101395.75
2022-09-23T10:52:16.159Z,101392.63
2022-09-23T10:55:08.597Z,101390.44
2022-09-23T10:57:59.036Z,101393.31
2022-09-23T11:00:57.923Z,101386.56
2022-09-23T11:03:58.536Z,101382.47
2022-09-23T11:06:43.112Z,101388.38
2022-09-23T11:09:15.615Z,101389.91
2022-09-23T11:12:11.022Z,101379.81
2022-09-23T11:14:46.297Z,101383.19
2022-09-23T11:17:33.073Z,101387.38
2022-09-23T11:20:23.877Z,101377.38
2022-09-23T11:22:59.237Z,101382.63
2022-09-23T11:25:47.259Z,101380.75
2022-09-23T11:28:20.037Z,101387.69
2022-09-23T11:30:46.613Z,101377.91
2022-09-23T11:33:46.639Z,101374.28
2022-09-23T11:36:28.365Z,101371.59
2022-09-23T11:39:00.954Z,101367.22
2022-09-23T11:41:30.600Z,101368.13
2022-09-23T11:44:21.223Z,101358.53
2022-09-23T11:46:55.811Z,101365.69
2022-09-23T11:49:43.246Z,101367.53
2022-09-23T11:52:19.564Z,101367.53
2022-09-23T11:54:51.914Z,101368.31
2022-09-23T11:57:49.582Z,101360.19
2022-09-23T12:00:30.203Z,101359.94
2022-09-23T12:03:44.365Z,101357.91
2022-09-23T12:06:19.155Z,101361.34
2022-09-23T12:08:45.806Z,101371.03
2022-09-23T12:11:15.572Z,101352.22
2022-09-23T12:13:45.072Z,101361.03
2022-09-23T12:16:37.567Z,101358.28
2022-09-23T12:19:28.734Z,101367.97
2022-09-23T12:22:25.661Z,101363.50
2022-09-23T12:25:07.664Z,101361.69
2022-09-23T12:27:45.605Z,101344.56
2022-09-23T12:30:25.045Z,101341.72
2022-09-23T12:32:51.888Z,101348.75
2022-09-23T12:35:32.215Z,101337.25
2022-09-23T12:38:01.440Z,101338.19
2022-09-23T12:40:43.968Z,101333.63
2022-09-23T12:44:18.065Z,101336.91
2022-09-23T12:46:45.904Z,101326.81
2022-09-23T12:49:28.830Z,101327.78
2022-09-23T12:52:25.471Z,101327.78
2022-09-23T12:54:56.496Z,101329.34
2022-09-23T12:57:34.973Z,101329.22
2022-09-23T13:00:13.025Z,101325.53
2022-09-23T13:03:07.567Z,101322.75
2022-09-23T13:06:03.666Z,101324.56
2022-09-23T13:08:31.051Z,101321.88
2022-09-23T13:11:02.991Z,101323.63
2022-09-23T13:13:42.850Z,101315.66
2022-09-23T13:16:26.456Z,101320.94
2022-09-23T13:19:26.311Z,101310.31
2022-09-23T13:22:09.446Z,101313.84
2022-09-23T13:24:40.598Z,101307.53
2022-09-23T13:27:43.386Z,101308.50
2022-09-23T13:30:16.445Z,101310.31
2022-09-23T13:33:16.460Z,101305.97
2022-09-23T13:35:51.530Z,101305.13
2022-09-23T13:38:26.118Z,101293.53
2022-09-23T13:41:01.951Z,101300.88
2022-09-23T13:43:32.479Z,101290.44
2022-09-23T13:46:01.069Z,101297.84
2022-09-23T13:48:28.831Z,101288.13
2022-09-23T13:50:56.147Z,101284.59
2022-09-23T13:53:28.139Z,101295.94
2022-09-23T13:56:13.211Z,101290.44
2022-09-23T13:58:40.473Z,101288.66
2022-09-23T14:01:22.333Z,101282.28
2022-09-23T14:03:49.116Z,101280.47
2022-09-23T14:06:16.691Z,101284.91
2022-09-23T14:08:48.327Z,101273.38
2022-09-23T14:11:20.897Z,101288.50
2022-09-23T14:13:51.062Z,101282.38
2022-09-23T14:16:19.603Z,101277.19
2022-09-23T14:18:49.626Z,101276.56
2022-09-23T14:21:34.765Z,101274.16
2022-09-23T14:24:25.165Z,101275.22
2022-09-23T14:27:11.947Z,101268.38
2022-09-23T14:29:41.358Z,101279.19
2022-09-23T14:32:18.706Z,101274.88
2022-09-23T14:34:53.035Z,101270.47
2022-09-23T14:37:41.088Z,101275.09
2022-09-23T14:40:32.066Z,101267.41
2022-09-23T14:43:15.852Z,101265.13
2022-09-23T14:45:50.519Z,101269.00
2022-09-23T14:48:23.019Z,101271.91
2022-09-23T14:50:52.759Z,101266.75
2022-09-23T14:53:19.486Z,101279.25
2022-09-23T14:55:52.916Z,101273.03
2022-09-23T14:58:22.951Z,101279.34
2022-09-23T15:01:00.723Z,101269.56
2022-09-23T15:03:28.633Z,101262.63
2022-09-23T15:06:08.777Z,101274.38
2022-09-23T15:08:36.029Z,101272.81
2022-09-23T15:11:08.074Z,101269.41
2022-09-23T15:13:40.083Z,101272.19
2022-09-23T15:16:07.479Z,101272.34
2022-09-23T15:18:37.245Z,101273.34
2022-09-23T15:21:16.206Z,101271.78
2022-09-23T15:23:48.717Z,101278.25
2022-09-23T15:26:38.185Z,101268.72
2022-09-23T15:29:09.699Z,101269.81
2022-09-23T15:31:37.381Z,101268.34
2022-09-23T15:34:05.658Z,101275.63
2022-09-23T15:36:32.757Z,101270.53
2022-09-23T15:39:06.164Z,101266.28
2022-09-23T15:41:35.776Z,101278.09
2022-09-23T15:44:13.317Z,101267.56
2022-09-23T15:46:46.029Z,101265.13
2022-09-23T15:49:36.289Z,101260.06
2022-09-23T15:52:05.114Z,101260.31
2022-09-23T15:54:34.765Z,101265.00
2022-09-23T15:57:01.457Z,101267.09
2022-09-23T15:59:31.100Z,101261.03
2022-09-23T16:02:03.273Z,101263.00
2022-09-23T16:04:31.425Z,101265.84
2022-09-23T16:06:59.135Z,101273.13
2022-09-23T16:09:28.298Z,101270.69
2022-09-23T16:11:55.094Z,101274.44
2022-09-23T16:14:21.755Z,101268.44
2022-09-23T16:16:49.621Z,101271.28
2022-09-23T16:19:17.733Z,101274.16
2022-09-23T16:21:44.861Z,101275.31
2022-09-23T16:24:17.147Z,101267.59
2022-09-23T16:26:46.603Z,101270.53
2022-09-23T16:29:13.786Z,101267.28
2022-09-23T16:31:40.786Z,101272.84
2022-09-23T16:34:07.478Z,101271.41
2022-09-23T16:36:43.383Z,101266.34
2022-09-23T16:39:12.819Z,101262.22
2022-09-23T16:41:40.341Z,101270.47
2022-09-23T16:44:09.371Z,101268.00
2022-09-23T16:46:36.566Z,101264.78
2022-09-23T16:49:03.630Z,101269.53
2022-09-23T16:51:38.997Z,101263.59
2022-09-23T16:54:11.769Z,101261.19
2022-09-23T16:56:45.315Z,101264.16
2022-09-23T16:59:13.203Z,101268.88
2022-09-23T17:01:58.772Z,101261.22
2022-09-23T17:04:25.611Z,101274.84
2022-09-23T17:06:53.185Z,101266.31
2022-09-23T17:09:28.416Z,101270.22
2022-09-23T17:12:25.978Z,101281.16
2022-09-23T17:14:53.117Z,101274.28
2022-09-23T17:17:19.845Z,101273.75
2022-09-23T17:19:47.296Z,101272.31
2022-09-23T17:22:14.343Z,101279.78
2022-09-23T17:24:41.449Z,101272.00
2022-09-23T17:27:08.063Z,101273.03
2022-09-23T17:29:34.677Z,101281.13
2022-09-23T17:32:01.595Z,101286.63
2022-09-23T17:34:28.984Z,101277.00
2022-09-23T17:36:55.733Z,101275.47
2022-09-23T17:39:22.367Z,101285.34
2022-09-23T17:41:49.243Z,101281.03
2022-09-23T17:44:17.632Z,101277.63
2022-09-23T17:46:44.276Z,101277.75
2022-09-23T17:49:11.375Z,101279.59
2022-09-23T17:51:37.967Z,101273.56
2022-09-23T17:54:04.678Z,101279.88
2022-09-23T17:56:31.477Z,101275.63
2022-09-23T17:59:01.871Z,101275.88
2022-09-23T18:01:29.418Z,101273.34
2022-09-23T18:03:58.228Z,101267.19
2022-09-23T18:06:27.698Z,101277.84
2022-09-23T18:08:55.980Z,101263.72
2022-09-23T18:11:27.850Z,101270.94
2022-09-23T18:13:59.995Z,101264.94
2022-09-23T18:16:35.064Z,101273.91
2022-09-23T18:19:03.785Z,101268.69
2022-09-23T18:21:33.515Z,101273.22
2022-09-23T18:24:21.732Z,101276.78
2022-09-23T18:26:49.426Z,101270.66
2022-09-23T18:29:16.742Z,101275.16
2022-09-23T18:31:45.184Z,101274.38
2022-09-23T18:34:14.115Z,101274.38
2022-09-23T18:36:41.048Z,101274.41
2022-09-23T18:39:07.957Z,101269.16
2022-09-23T18:41:35.554Z,101267.47
2022-09-23T18:44:02.575Z,101274.63
2022-09-23T18:46:30.310Z,101277.34
2022-09-23T18:49:16.567Z,101273.94
2022-09-23T18:51:52.521Z,101269.66
2022-09-23T18:54:19.822Z,101269.75
2022-09-23T18:56:46.826Z,101276.03
2022-09-23T18:59:19.618Z,101278.78
2022-09-23T19:01:50.112Z,101271.78
2022-09-23T19:04:19.294Z,101275.38
2022-09-23T19:06:46.502Z,101277.28
2022-09-23T19:09:14.849Z,101276.47
2022-09-23T19:11:41.752Z,101266.75
2022-09-23T19:14:11.354Z,101273.00
2022-09-23T19:16:39.539Z,101273.88
2022-09-23T19:19:06.650Z,101271.25
2022-09-23T19:21:33.510Z,101264.19
2022-09-23T19:24:05.790Z,101259.06
2022-09-23T19:26:36.095Z,101264.50
2022-09-23T19:29:04.377Z,101266.47
2022-09-23T19:31:33.903Z,101259.50
2022-09-23T19:34:29.380Z,101254.31
2022-09-23T19:36:57.466Z,101258.84
2022-09-23T19:39:26.974Z,101257.31
2022-09-23T19:41:56.062Z,101263.50
2022-09-23T19:44:25.148Z,101265.47
2022-09-23T19:46:56.313Z,101259.50
2022-09-23T19:49:25.126Z,101255.19
2022-09-23T19:51:56.051Z,101257.13
2022-09-23T19:54:26.097Z,101258.06
2022-09-23T19:56:52.740Z,101253.66
2022-09-23T19:59:19.845Z,101265.16
2022-09-23T20:01:48.260Z,101254.53
2022-09-23T20:04:16.006Z,101255.41
2022-09-23T20:06:43.286Z,101252.66
2022-09-23T20:09:10.025Z,101257.97
2022-09-23T20:11:36.901Z,101252.66
2022-09-23T20:14:06.289Z,101248.28
2022-09-23T20:16:36.868Z,101256.31
2022-09-23T20:19:04.375Z,101251.91
2022-09-23T20:21:31.532Z,101245.72
2022-09-23T20:23:58.350Z,101251.09
2022-09-23T20:26:43.468Z,101248.53
2022-09-23T20:29:11.098Z,101247.72
2022-09-23T20:31:41.489Z,101247.72
2022-09-23T20:34:10.502Z,101248.63
2022-09-23T20:36:37.828Z,101245.28
2022-09-23T20:39:08.020Z,101244.63
2022-09-23T20:41:37.587Z,101246.69
2022-09-23T20:44:12.421Z,101243.19
2022-09-23T20:46:48.225Z,101239.50
2022-09-23T20:49:19.640Z,101238.47
2022-09-23T20:51:50.512Z,101237.41
2022-09-23T20:54:20.332Z,101239.03
2022-09-23T20:56:47.663Z,101233.56
2022-09-23T20:59:15.082Z,101246.81
2022-09-23T21:01:41.877Z,101242.63
2022-09-23T21:04:09.791Z,101244.53
2022-09-23T21:06:37.597Z,101241.88
2022-09-23T21:09:07.602Z,101239.97
2022-09-23T21:11:34.355Z,101245.03
2022-09-23T21:14:01.547Z,101245.69
2022-09-23T21:16:28.661Z,101243.81
2022-09-23T21:18:55.407Z,101249.06
2022-09-23T21:21:22.543Z,101250.84
2022-09-23T21:23:52.648Z,101237.53
2022-09-23T21:26:24.742Z,101249.88
2022-09-23T21:28:55.159Z,101257.78
2022-09-23T21:31:25.585Z,101256.00
2022-09-23T21:33:59.095Z,101255.97
2022-09-23T21:36:28.254Z,101253.22
2022-09-23T21:38:58.263Z,101257.66
2022-09-23T21:41:25.391Z,101250.56
2022-09-23T21:43:52.059Z,101250.56
2022-09-23T21:46:20.666Z,101249.69
2022-09-23T21:48:53.012Z,101249.69
2022-09-23T21:51:25.729Z,101259.38
2022-09-23T21:53:54.892Z,101252.25
2022-09-23T21:56:22.866Z,101246.81
2022-09-23T21:58:49.935Z,101251.22
2022-09-23T22:01:22.677Z,101253.81
2022-09-23T22:03:54.514Z,101252.94
2022-09-23T22:06:23.671Z,101247.69
2022-09-23T22:08:53.531Z,101248.59
2022-09-23T22:11:41.190Z,101233.50
2022-09-23T22:14:11.790Z,101245.91
2022-09-23T22:16:42.552Z,101236.31
2022-09-23T22:19:13.055Z,101240.72
2022-09-23T22:21:41.734Z,101235.47
2022-09-23T22:24:12.735Z,101235.56
2022-09-23T22:26:45.747Z,101238.28
2022-09-23T22:29:33.262Z,101233.06
2022-09-23T22:32:20.343Z,101233.97
2022-09-23T22:34:52.352Z,101234.91
2022-09-23T22:37:28.289Z,101232.31
2022-09-23T22:39:55.052Z,101226.25
2022-09-23T22:42:22.441Z,101236.97
2022-09-23T22:44:50.112Z,101228.16
2022-09-23T22:47:20.496Z,101236.09
2022-09-23T22:49:50.570Z,101234.22
2022-09-23T22:52:23.691Z,101235.97
2022-09-23T22:54:54.372Z,101233.31
2022-09-23T22:57:20.973Z,101242.22
2022-09-23T22:59:48.500Z,101244.88
2022-09-23T23:02:20.843Z,101241.28
2022-09-23T23:04:48.228Z,101240.38
2022-09-23T23:07:23.458Z,101246.50
2022-09-23T23:09:50.824Z,101242.94
2022-09-23T23:12:20.960Z,101237.72
2022-09-23T23:14:49.078Z,101236.91
2022-09-23T23:17:19.264Z,101237.16
2022-09-23T23:19:46.078Z,101239.91
2022-09-23T23:22:12.816Z,101237.19
2022-09-23T23:24:41.892Z,101238.88
2022-09-23T23:27:08.470Z,101237.09
2022-09-23T23:29:37.628Z,101236.28
2022-09-23T23:32:05.203Z,101235.41
2022-09-23T23:34:31.967Z,101240.66
2022-09-23T23:36:58.619Z,101235.28
2022-09-23T23:39:25.716Z,101231.69
2022-09-23T23:41:57.068Z,101227.28
2022-09-23T23:44:26.198Z,101227.28
2022-09-23T23:46:54.264Z,101231.66
2022-09-23T23:49:21.628Z,101230.78
2022-09-23T23:51:51.026Z,101229.03
2022-09-23T23:54:17.613Z,101229.13
2022-09-23T23:56:44.321Z,101231.06
2022-09-23T23:59:11.355Z,101228.56
